Time;durP1;ratioP1;P1;durP2;ratioP2;P2;SDS_P1;SDS_P2;PMS_P1;PMS_P2;Temp;Humidity;BMP_temperature;BMP_pressure;BME280_temperature;BME280_humidity;BME280_pressure;Samples;Min_cycle;Max_cycle;Signal;HPM_P1;HPM_P2
2023/05/05 00:01:49;;;;;;;11.00;5.22;;;;;;;;;;5068983;28;20218;-63
2023/05/05 00:04:16;;;;;;;10.50;5.63;;;;;;;;;;5089388;28;20263;-63
2023/05/05 00:06:41;;;;;;;8.65;5.35;;;;;;;;;;5074841;28;20305;-63
2023/05/05 00:09:07;;;;;;;7.68;5.22;;;;;;;;;;5075767;28;20285;-63
2023/05/05 00:11:32;;;;;;;10.57;5.50;;;;;;;;;;5069431;28;20749;-63
2023/05/05 00:13:57;;;;;;;8.70;5.40;;;;;;;;;;5069390;28;20304;-63
2023/05/05 00:16:22;;;;;;;8.50;5.38;;;;;;;;;;5074940;28;20209;-63
2023/05/05 00:18:48;;;;;;;10.30;6.20;;;;;;;;;;5092181;28;20305;-63
2023/05/05 00:21:14;;;;;;;7.25;5.65;;;;;;;;;;5093062;28;20213;-63
2023/05/05 00:23:39;;;;;;;10.32;5.05;;;;;;;;;;5093014;28;20214;-63
2023/05/05 00:26:05;;;;;;;11.35;5.40;;;;;;;;;;5086685;28;20595;-63
2023/05/05 00:28:30;;;;;;;8.30;5.30;;;;;;;;;;5082442;28;20213;-63
2023/05/05 00:30:55;;;;;;;7.07;5.22;;;;;;;;;;5071376;28;20218;-63
2023/05/05 00:33:21;;;;;;;10.40;5.05;;;;;;;;;;5063223;28;20240;-63
2023/05/05 00:35:46;;;;;;;7.30;5.43;;;;;;;;;;5073342;28;20237;-63
2023/05/05 00:38:11;;;;;;;9.43;5.97;;;;;;;;;;5080780;28;20213;-63
2023/05/05 00:40:37;;;;;;;10.30;5.60;;;;;;;;;;5079227;28;20205;-63
2023/05/05 00:43:02;;;;;;;8.13;4.95;;;;;;;;;;5069429;28;20214;-63
2023/05/05 00:45:28;;;;;;;7.97;5.28;;;;;;;;;;5056196;28;20959;-63
2023/05/05 00:47:55;;;;;;;8.73;5.55;;;;;;;;;;5076910;28;20295;-63
2023/05/05 00:50:22;;;;;;;7.55;5.30;;;;;;;;;;5075841;28;20294;-63
2023/05/05 00:52:47;;;;;;;11.90;5.90;;;;;;;;;;5070519;28;21123;-63
2023/05/05 00:55:13;;;;;;;9.13;5.72;;;;;;;;;;5062801;28;20607;-63
2023/05/05 00:57:38;;;;;;;10.02;6.82;;;;;;;;;;5070799;28;21076;-63
2023/05/05 01:00:04;;;;;;;9.38;6.15;;;;;;;;;;5062607;28;20284;-63
2023/05/05 01:02:30;;;;;;;8.88;6.00;;;;;;;;;;5068995;28;20234;-63
2023/05/05 01:04:55;;;;;;;8.40;5.95;;;;;;;;;;5054866;28;20295;-63
2023/05/05 01:07:21;;;;;;;12.50;6.70;;;;;;;;;;5055154;28;20210;-63
2023/05/05 01:09:56;;;;;;;10.73;6.32;;;;;;;;;;5056112;28;20862;-63
2023/05/05 01:12:33;;;;;;;13.23;6.28;;;;;;;;;;5079528;28;20231;-63
2023/05/05 01:15:00;;;;;;;10.43;6.15;;;;;;;;;;5080870;28;20240;-63
2023/05/05 01:17:29;;;;;;;10.27;6.00;;;;;;;;;;5080340;28;20240;-63
2023/05/05 01:19:58;;;;;;;10.82;5.70;;;;;;;;;;5080308;28;20683;-63
2023/05/05 01:22:23;;;;;;;9.48;5.72;;;;;;;;;;5077219;28;20213;-63
2023/05/05 01:24:52;;;;;;;11.70;5.78;;;;;;;;;;5062254;28;20222;-63
2023/05/05 01:27:29;;;;;;;9.52;5.63;;;;;;;;;;5080010;28;20218;-63
2023/05/05 01:30:00;;;;;;;9.68;5.78;;;;;;;;;;5075600;28;20213;-63
2023/05/05 01:32:26;;;;;;;9.85;5.82;;;;;;;;;;5070647;28;20206;-63
2023/05/05 01:34:52;;;;;;;8.65;5.68;;;;;;;;;;5071038;28;20230;-63
2023/05/05 01:37:19;;;;;;;9.70;5.63;;;;;;;;;;5070056;28;20500;-63
2023/05/05 01:39:44;;;;;;;9.57;5.93;;;;;;;;;;5070600;28;20293;-63
2023/05/05 01:42:13;;;;;;;11.73;6.57;;;;;;;;;;5068976;28;20301;-63
2023/05/05 01:44:40;;;;;;;9.77;6.32;;;;;;;;;;5071971;28;20207;-63
2023/05/05 01:47:05;;;;;;;9.68;7.20;;;;;;;;;;5069127;28;20671;-63
2023/05/05 01:49:30;;;;;;;9.40;6.90;;;;;;;;;;5070552;28;20210;-63
2023/05/05 01:51:56;;;;;;;11.35;7.97;;;;;;;;;;5053682;28;20222;-63
2023/05/05 01:54:23;;;;;;;12.18;8.93;;;;;;;;;;5070215;28;20601;-63
2023/05/05 01:56:48;;;;;;;12.00;8.43;;;;;;;;;;5071261;28;20264;-63
2023/05/05 01:59:13;;;;;;;16.17;10.93;;;;;;;;;;5069762;28;20218;-63
2023/05/05 02:01:40;;;;;;;14.55;10.27;;;;;;;;;;5074951;28;20259;-63
2023/05/05 02:04:05;;;;;;;12.82;10.00;;;;;;;;;;5069636;28;20236;-63
2023/05/05 02:06:32;;;;;;;17.52;11.50;;;;;;;;;;5084684;28;20720;-63
2023/05/05 02:08:57;;;;;;;18.17;11.35;;;;;;;;;;5088219;28;20210;-63
2023/05/05 02:11:22;;;;;;;14.20;10.50;;;;;;;;;;5069103;28;20223;-63
2023/05/05 02:13:47;;;;;;;13.18;10.50;;;;;;;;;;5071154;28;20579;-63
2023/05/05 02:16:13;;;;;;;14.07;11.10;;;;;;;;;;5074163;28;20206;-63
2023/05/05 02:18:38;;;;;;;15.65;11.45;;;;;;;;;;5089960;28;20216;-63
2023/05/05 02:21:03;;;;;;;14.23;10.98;;;;;;;;;;5090898;28;20214;-63
2023/05/05 02:23:29;;;;;;;15.98;10.70;;;;;;;;;;5089012;28;20210;-63
2023/05/05 02:25:54;;;;;;;12.70;10.38;;;;;;;;;;5089667;28;20213;-63
2023/05/05 02:28:20;;;;;;;13.90;10.18;;;;;;;;;;5073874;28;20571;-63
2023/05/05 02:30:47;;;;;;;12.10;9.80;;;;;;;;;;5073135;28;20202;-63
2023/05/05 02:33:12;;;;;;;12.38;10.07;;;;;;;;;;5070109;28;20215;-63
2023/05/05 02:35:38;;;;;;;12.88;9.70;;;;;;;;;;5072371;28;20218;-63
2023/05/05 02:38:04;;;;;;;11.90;9.18;;;;;;;;;;5072069;28;20627;-63
2023/05/05 02:40:30;;;;;;;12.43;8.93;;;;;;;;;;5072164;28;20206;-63
2023/05/05 02:42:56;;;;;;;11.85;8.98;;;;;;;;;;5070003;28;20211;-63
2023/05/05 02:45:21;;;;;;;11.00;8.80;;;;;;;;;;5069353;28;20213;-63
2023/05/05 02:47:46;;;;;;;14.38;9.40;;;;;;;;;;5069317;28;20559;-63
2023/05/05 02:50:12;;;;;;;12.35;9.02;;;;;;;;;;5069157;28;20210;-63
2023/05/05 02:52:37;;;;;;;13.20;9.13;;;;;;;;;;5070366;28;20229;-63
2023/05/05 02:55:03;;;;;;;11.57;9.50;;;;;;;;;;5068328;28;20218;-63
2023/05/05 02:57:40;;;;;;;14.02;8.82;;;;;;;;;;5068428;28;20221;-63
2023/05/05 03:00:08;;;;;;;10.27;8.43;;;;;;;;;;5069965;28;20206;-63
2023/05/05 03:02:33;;;;;;;12.93;8.80;;;;;;;;;;5069070;28;20206;-64
2023/05/05 03:05:01;;;;;;;10.48;8.63;;;;;;;;;;5068057;28;20218;-63
2023/05/05 03:07:29;;;;;;;14.68;9.43;;;;;;;;;;5090110;28;20713;-63
2023/05/05 03:10:04;;;;;;;10.75;8.68;;;;;;;;;;5079835;28;20215;-64
2023/05/05 03:12:35;;;;;;;11.05;9.00;;;;;;;;;;5069045;28;20305;-63
2023/05/05 03:15:00;;;;;;;12.23;9.52;;;;;;;;;;5070134;28;20332;-63
2023/05/05 03:17:25;;;;;;;11.07;8.70;;;;;;;;;;5083982;28;20210;-63
2023/05/05 03:19:51;;;;;;;11.43;8.38;;;;;;;;;;5087837;28;20229;-64
2023/05/05 03:22:16;;;;;;;12.38;9.35;;;;;;;;;;5089547;28;20237;-64
2023/05/05 03:24:41;;;;;;;12.57;9.55;;;;;;;;;;5088960;28;20309;-63
2023/05/05 03:27:06;;;;;;;13.35;9.23;;;;;;;;;;5088966;28;20221;-63
2023/05/05 03:29:32;;;;;;;11.65;9.63;;;;;;;;;;5056130;28;20210;-63
2023/05/05 03:31:57;;;;;;;11.23;9.25;;;;;;;;;;5060358;28;20252;-63
2023/05/05 03:34:22;;;;;;;10.13;8.77;;;;;;;;;;5056781;28;20595;-63
2023/05/05 03:36:48;;;;;;;11.80;9.43;;;;;;;;;;5059992;28;20237;-63
2023/05/05 03:39:13;;;;;;;10.52;8.85;;;;;;;;;;5060250;28;20240;-63
2023/05/05 03:41:38;;;;;;;15.25;9.73;;;;;;;;;;5059071;28;20727;-63
2023/05/05 03:44:04;;;;;;;12.32;9.50;;;;;;;;;;5069716;28;20597;-63
2023/05/05 03:46:29;;;;;;;11.98;9.32;;;;;;;;;;5061225;28;20246;-63
2023/05/05 03:48:55;;;;;;;10.35;9.02;;;;;;;;;;5057566;28;20581;-64
2023/05/05 03:51:21;;;;;;;14.00;9.07;;;;;;;;;;5053685;28;20321;-63
2023/05/05 03:53:46;;;;;;;11.85;9.20;;;;;;;;;;5051178;28;20224;-63
2023/05/05 03:56:12;;;;;;;12.95;9.65;;;;;;;;;;5054595;28;20222;-63
2023/05/05 03:58:37;;;;;;;13.95;9.63;;;;;;;;;;5059681;28;20564;-63
2023/05/05 04:01:02;;;;;;;13.95;9.15;;;;;;;;;;5060763;28;20315;-63
2023/05/05 04:03:28;;;;;;;11.65;9.05;;;;;;;;;;5073656;28;20657;-63
2023/05/05 04:05:53;;;;;;;10.63;8.98;;;;;;;;;;5075343;28;20214;-64
2023/05/05 04:08:18;;;;;;;12.98;9.45;;;;;;;;;;5058495;28;20285;-63
2023/05/05 04:10:44;;;;;;;14.00;10.20;;;;;;;;;;5066028;28;20217;-63
2023/05/05 04:13:09;;;;;;;11.45;9.10;;;;;;;;;;5052773;28;20225;-63
2023/05/05 04:15:35;;;;;;;15.60;9.68;;;;;;;;;;5056801;28;20767;-64
2023/05/05 04:18:00;;;;;;;10.20;8.55;;;;;;;;;;5052884;28;20521;-63
2023/05/05 04:20:25;;;;;;;15.38;9.43;;;;;;;;;;5066236;28;20771;-63
2023/05/05 04:22:50;;;;;;;13.32;10.32;;;;;;;;;;5078853;28;20209;-64
2023/05/05 04:25:16;;;;;;;16.13;10.10;;;;;;;;;;5067025;28;20241;-63
2023/05/05 04:27:41;;;;;;;13.15;9.85;;;;;;;;;;5078004;28;20313;-63
2023/05/05 04:30:08;;;;;;;12.52;9.15;;;;;;;;;;5068626;28;20210;-65
2023/05/05 04:32:33;;;;;;;13.60;10.30;;;;;;;;;;5067932;28;20669;-65
2023/05/05 04:34:58;;;;;;;14.68;10.15;;;;;;;;;;5072597;28;20229;-65
2023/05/05 04:37:24;;;;;;;14.05;10.95;;;;;;;;;;5055424;28;20214;-65
2023/05/05 04:39:50;;;;;;;21.33;12.77;;;;;;;;;;5057535;28;20713;-65
2023/05/05 04:42:15;;;;;;;16.88;12.65;;;;;;;;;;5074085;28;20224;-65
2023/05/05 04:44:40;;;;;;;14.40;11.07;;;;;;;;;;5072447;28;20241;-65
2023/05/05 04:47:06;;;;;;;14.23;9.88;;;;;;;;;;5070252;28;20206;-65
2023/05/05 04:49:31;;;;;;;13.13;11.60;;;;;;;;;;5087439;28;20424;-63
2023/05/05 04:51:56;;;;;;;13.57;10.77;;;;;;;;;;5076025;28;20575;-62
2023/05/05 04:54:21;;;;;;;15.32;10.43;;;;;;;;;;5068539;28;20273;-63
2023/05/05 04:56:47;;;;;;;15.03;11.93;;;;;;;;;;5073579;28;20429;-63
2023/05/05 04:59:12;;;;;;;15.25;12.52;;;;;;;;;;5079394;28;20650;-63
2023/05/05 05:01:38;;;;;;;15.00;12.85;;;;;;;;;;5086257;28;20206;-64
2023/05/05 05:04:03;;;;;;;17.83;13.40;;;;;;;;;;5089169;28;20229;-63
2023/05/05 05:06:28;;;;;;;16.33;12.95;;;;;;;;;;5079551;28;20692;-63
2023/05/05 05:08:54;;;;;;;20.63;14.88;;;;;;;;;;5073046;28;20213;-64
2023/05/05 05:11:20;;;;;;;17.15;15.32;;;;;;;;;;5091157;28;20226;-64
2023/05/05 05:13:45;;;;;;;16.13;14.32;;;;;;;;;;5092269;28;20218;-64
2023/05/05 05:16:11;;;;;;;17.17;14.55;;;;;;;;;;5081725;28;20537;-63
2023/05/05 05:18:36;;;;;;;20.55;15.15;;;;;;;;;;5082519;28;20210;-64
2023/05/05 05:21:02;;;;;;;19.15;14.75;;;;;;;;;;5088025;28;20210;-63
2023/05/05 05:23:27;;;;;;;19.90;15.30;;;;;;;;;;5092364;28;20692;-64
2023/05/05 05:25:52;;;;;;;21.23;16.05;;;;;;;;;;5091816;28;20301;-64
2023/05/05 05:28:18;;;;;;;23.75;15.32;;;;;;;;;;5091929;28;20238;-65
2023/05/05 05:30:43;;;;;;;19.67;15.15;;;;;;;;;;5092063;28;20217;-64
2023/05/05 05:33:08;;;;;;;21.70;14.32;;;;;;;;;;5079160;28;20230;-64
2023/05/05 05:35:34;;;;;;;20.13;14.50;;;;;;;;;;5088667;28;20569;-65
2023/05/05 05:37:59;;;;;;;19.50;13.93;;;;;;;;;;5092091;28;20210;-64
2023/05/05 05:40:25;;;;;;;18.88;14.05;;;;;;;;;;5077547;28;20221;-65
2023/05/05 05:42:50;;;;;;;18.92;13.23;;;;;;;;;;5082128;28;20648;-64
2023/05/05 05:45:15;;;;;;;17.88;13.25;;;;;;;;;;5082292;28;20194;-64
2023/05/05 05:47:40;;;;;;;17.23;13.73;;;;;;;;;;5080352;28;20632;-64
2023/05/05 05:50:06;;;;;;;17.23;12.23;;;;;;;;;;5086409;28;20289;-63
2023/05/05 05:52:32;;;;;;;16.42;12.23;;;;;;;;;;5071570;28;20202;-64
2023/05/05 05:54:57;;;;;;;13.95;11.98;;;;;;;;;;5077757;28;20721;-62
2023/05/05 05:57:23;;;;;;;18.65;11.70;;;;;;;;;;5076287;28;20210;-63
2023/05/05 05:59:48;;;;;;;13.48;11.95;;;;;;;;;;5090247;28;20212;-62
2023/05/05 06:02:13;;;;;;;14.25;11.00;;;;;;;;;;5081340;28;20222;-63
2023/05/05 06:04:39;;;;;;;13.73;10.55;;;;;;;;;;5071491;28;20238;-62
2023/05/05 06:07:05;;;;;;;17.58;10.52;;;;;;;;;;5070859;28;20222;-63
2023/05/05 06:09:30;;;;;;;12.43;9.95;;;;;;;;;;5071399;28;20287;-64
2023/05/05 06:11:55;;;;;;;16.08;10.70;;;;;;;;;;5071213;28;20230;-63
2023/05/05 06:14:20;;;;;;;12.45;9.88;;;;;;;;;;5070010;28;20218;-63
2023/05/05 06:16:46;;;;;;;12.60;9.65;;;;;;;;;;5079928;28;20209;-63
2023/05/05 06:19:11;;;;;;;14.95;10.48;;;;;;;;;;5090990;28;20220;-63
2023/05/05 06:21:36;;;;;;;15.38;10.00;;;;;;;;;;5090766;28;20217;-63
2023/05/05 06:24:02;;;;;;;13.63;10.00;;;;;;;;;;5090739;28;20688;-63
2023/05/05 06:26:27;;;;;;;12.27;9.38;;;;;;;;;;5086470;28;20280;-62
2023/05/05 06:28:52;;;;;;;12.38;9.68;;;;;;;;;;5078214;28;20324;-63
2023/05/05 06:31:18;;;;;;;13.55;9.05;;;;;;;;;;5070287;28;20238;-63
2023/05/05 06:33:43;;;;;;;13.63;8.85;;;;;;;;;;5071014;28;20698;-63
2023/05/05 06:36:08;;;;;;;10.90;7.82;;;;;;;;;;5069588;28;20587;-63
2023/05/05 06:38:34;;;;;;;9.73;7.53;;;;;;;;;;5070784;28;20226;-63
2023/05/05 06:40:59;;;;;;;11.48;7.18;;;;;;;;;;5069207;28;20213;-63
2023/05/05 06:43:24;;;;;;;8.80;6.07;;;;;;;;;;5069286;28;20257;-63
2023/05/05 06:45:50;;;;;;;8.27;5.03;;;;;;;;;;5070509;28;20417;-63
2023/05/05 06:48:15;;;;;;;9.57;6.07;;;;;;;;;;5070138;28;20491;-62
2023/05/05 06:50:41;;;;;;;10.60;5.68;;;;;;;;;;5069717;28;20226;-63
2023/05/05 06:53:06;;;;;;;11.55;4.85;;;;;;;;;;5070044;28;20332;-62
2023/05/05 06:55:31;;;;;;;6.88;4.68;;;;;;;;;;5070420;28;20222;-63
2023/05/05 06:57:56;;;;;;;6.43;3.78;;;;;;;;;;5076454;28;20260;-62
2023/05/05 07:00:22;;;;;;;7.05;4.10;;;;;;;;;;5069732;28;20895;-62
2023/05/05 07:02:47;;;;;;;7.32;3.75;;;;;;;;;;5070247;28;20215;-63
2023/05/05 07:05:12;;;;;;;6.90;3.90;;;;;;;;;;5071287;28;20214;-62
2023/05/05 07:07:40;;;;;;;7.75;3.40;;;;;;;;;;5090458;28;20213;-63
2023/05/05 07:10:06;;;;;;;6.72;3.40;;;;;;;;;;5077974;28;20272;-63
2023/05/05 07:12:31;;;;;;;7.97;3.38;;;;;;;;;;5069278;28;20303;-63
2023/05/05 07:14:56;;;;;;;5.78;3.20;;;;;;;;;;5071353;28;20889;-63
2023/05/05 07:17:21;;;;;;;8.52;3.03;;;;;;;;;;5070589;28;20674;-63
2023/05/05 07:19:47;;;;;;;7.47;3.10;;;;;;;;;;5073449;28;20210;-63
2023/05/05 07:22:12;;;;;;;7.70;3.10;;;;;;;;;;5087026;28;20251;-63
2023/05/05 07:24:38;;;;;;;5.65;2.90;;;;;;;;;;5080178;28;20263;-63
2023/05/05 07:27:03;;;;;;;8.38;3.13;;;;;;;;;;5067754;28;20257;-63
2023/05/05 07:29:28;;;;;;;5.45;2.80;;;;;;;;;;5072134;28;20210;-63
2023/05/05 07:31:53;;;;;;;5.97;2.55;;;;;;;;;;5081133;28;20225;-62
2023/05/05 07:34:19;;;;;;;8.98;2.85;;;;;;;;;;5080541;28;20264;-63
2023/05/05 07:36:44;;;;;;;8.25;3.15;;;;;;;;;;5077832;28;20209;-65
2023/05/05 07:39:10;;;;;;;6.88;2.38;;;;;;;;;;5084354;28;20260;-64
2023/05/05 07:41:35;;;;;;;5.78;2.42;;;;;;;;;;5089833;28;20205;-64
2023/05/05 07:44:01;;;;;;;5.75;2.30;;;;;;;;;;5079850;28;20795;-63
2023/05/05 07:46:26;;;;;;;5.32;2.30;;;;;;;;;;5082413;28;20289;-63
2023/05/05 07:48:51;;;;;;;7.22;2.20;;;;;;;;;;5086700;28;20354;-63
2023/05/05 07:51:16;;;;;;;5.47;2.40;;;;;;;;;;5089425;28;20218;-64
2023/05/05 07:53:42;;;;;;;6.03;2.60;;;;;;;;;;5087621;28;20699;-62
2023/05/05 07:56:07;;;;;;;8.35;3.58;;;;;;;;;;5089027;28;20229;-64
2023/05/05 07:58:33;;;;;;;6.93;4.30;;;;;;;;;;5082530;28;20672;-64
2023/05/05 08:00:59;;;;;;;8.75;4.13;;;;;;;;;;5088302;28;20209;-63
2023/05/05 08:03:25;;;;;;;8.65;4.30;;;;;;;;;;5089151;28;20229;-63
2023/05/05 08:05:52;;;;;;;7.80;3.60;;;;;;;;;;5082241;28;20272;-63
2023/05/05 08:08:17;;;;;;;7.57;3.60;;;;;;;;;;5068103;28;20676;-64
2023/05/05 08:10:42;;;;;;;9.40;6.07;;;;;;;;;;5084562;28;20222;-62
2023/05/05 08:13:08;;;;;;;9.73;5.43;;;;;;;;;;5082302;28;20226;-63
2023/05/05 08:15:33;;;;;;;9.02;5.30;;;;;;;;;;5068095;28;20713;-63
2023/05/05 08:17:58;;;;;;;9.43;5.70;;;;;;;;;;5069257;28;20217;-62
2023/05/05 08:20:26;;;;;;;10.73;6.93;;;;;;;;;;5068872;28;20206;-63
2023/05/05 08:22:51;;;;;;;9.90;7.13;;;;;;;;;;5066221;28;20414;-63
2023/05/05 08:25:16;;;;;;;10.88;7.43;;;;;;;;;;5068782;28;20248;-62
2023/05/05 08:27:42;;;;;;;10.90;6.97;;;;;;;;;;5074767;28;20194;-63
2023/05/05 08:30:07;;;;;;;11.82;7.20;;;;;;;;;;5080945;28;20210;-64
2023/05/05 08:32:33;;;;;;;10.45;6.30;;;;;;;;;;5081364;28;20553;-64
2023/05/05 08:34:59;;;;;;;10.35;6.20;;;;;;;;;;5070459;28;20346;-63
2023/05/05 08:37:25;;;;;;;8.65;5.20;;;;;;;;;;5088861;28;20205;-63
2023/05/05 08:39:50;;;;;;;9.25;5.65;;;;;;;;;;5089591;28;20600;-63
2023/05/05 08:42:15;;;;;;;8.85;6.07;;;;;;;;;;5075613;28;20221;-64
2023/05/05 08:44:41;;;;;;;9.77;5.75;;;;;;;;;;5071118;28;20304;-64
2023/05/05 08:47:06;;;;;;;11.50;6.18;;;;;;;;;;5072422;28;20646;-64
2023/05/05 08:49:37;;;;;;;9.88;5.30;;;;;;;;;;5076299;28;20210;-63
2023/05/05 08:52:03;;;;;;;11.35;7.50;;;;;;;;;;5082968;28;20202;-64
2023/05/05 08:54:28;;;;;;;10.48;4.88;;;;;;;;;;5086000;28;20544;-63
2023/05/05 08:56:54;;;;;;;7.78;5.35;;;;;;;;;;5084992;28;20630;-63
2023/05/05 08:59:20;;;;;;;10.23;5.50;;;;;;;;;;5077310;28;20280;-64
2023/05/05 09:01:45;;;;;;;10.35;6.03;;;;;;;;;;5081803;28;20268;-64
2023/05/05 09:04:10;;;;;;;9.73;5.15;;;;;;;;;;5089828;28;20206;-63
2023/05/05 09:06:36;;;;;;;9.60;4.60;;;;;;;;;;5078881;28;20211;-62
2023/05/05 09:09:01;;;;;;;7.18;4.90;;;;;;;;;;5075915;28;20210;-64
2023/05/05 09:11:27;;;;;;;8.40;5.82;;;;;;;;;;5075380;28;20226;-64
2023/05/05 09:13:52;;;;;;;10.85;5.10;;;;;;;;;;5079798;28;20214;-63
2023/05/05 09:16:18;;;;;;;9.27;5.63;;;;;;;;;;5085947;28;20305;-63
2023/05/05 09:18:44;;;;;;;7.97;4.22;;;;;;;;;;5071784;28;20297;-62
2023/05/05 09:21:19;;;;;;;8.25;3.90;;;;;;;;;;5071863;28;20218;-64
2023/05/05 09:24:04;;;;;;;8.77;4.45;;;;;;;;;;5074073;28;20209;-62
2023/05/05 09:26:31;;;;;;;8.15;4.80;;;;;;;;;;5087691;28;20218;-61
2023/05/05 09:28:57;;;;;;;7.50;3.88;;;;;;;;;;5078372;28;20214;-61
2023/05/05 09:31:22;;;;;;;9.48;4.10;;;;;;;;;;5079585;28;20210;-61
2023/05/05 09:33:47;;;;;;;7.40;4.03;;;;;;;;;;5070681;28;20599;-61
2023/05/05 09:36:12;;;;;;;7.97;3.97;;;;;;;;;;5071600;28;20234;-61
2023/05/05 09:38:38;;;;;;;8.13;3.40;;;;;;;;;;5070238;28;20581;-61
2023/05/05 09:41:05;;;;;;;6.22;3.60;;;;;;;;;;5071470;28;20727;-61
2023/05/05 09:43:30;;;;;;;5.97;3.30;;;;;;;;;;5071634;28;20218;-60
2023/05/05 09:46:06;;;;;;;6.82;2.97;;;;;;;;;;5069745;28;20256;-61
2023/05/05 09:48:31;;;;;;;8.05;2.50;;;;;;;;;;5064090;28;20441;-61
2023/05/05 09:50:57;;;;;;;5.43;2.17;;;;;;;;;;5071558;28;20218;-61
2023/05/05 09:53:22;;;;;;;4.30;1.90;;;;;;;;;;5070477;28;20627;-61
2023/05/05 09:55:54;;;;;;;4.25;2.17;;;;;;;;;;5071705;28;20234;-61
2023/05/05 09:58:20;;;;;;;5.20;2.17;;;;;;;;;;5077837;28;20248;-61
2023/05/05 10:00:45;;;;;;;5.80;2.20;;;;;;;;;;5069648;28;20217;-61
2023/05/05 10:03:10;;;;;;;6.30;2.90;;;;;;;;;;5071083;28;20210;-61
2023/05/05 10:05:45;;;;;;;6.90;3.03;;;;;;;;;;5071210;28;20214;-61
2023/05/05 10:08:12;;;;;;;7.18;3.20;;;;;;;;;;5070260;28;20237;-61
2023/05/05 10:10:37;;;;;;;6.57;3.60;;;;;;;;;;5071505;28;20210;-61
2023/05/05 10:13:03;;;;;;;5.15;2.38;;;;;;;;;;5069168;28;20685;-61
2023/05/05 10:15:28;;;;;;;5.25;2.83;;;;;;;;;;5070396;28;20776;-61
2023/05/05 10:17:53;;;;;;;5.97;3.03;;;;;;;;;;5090594;28;20748;-61
2023/05/05 10:20:19;;;;;;;7.38;3.13;;;;;;;;;;5089149;28;20218;-61
2023/05/05 10:22:48;;;;;;;7.28;3.33;;;;;;;;;;5091175;28;20210;-61
2023/05/05 10:25:13;;;;;;;7.03;3.15;;;;;;;;;;5090993;28;20213;-61
2023/05/05 10:27:45;;;;;;;6.57;3.00;;;;;;;;;;5090622;28;20209;-61
2023/05/05 10:30:15;;;;;;;11.93;3.40;;;;;;;;;;5088867;28;20218;-61
2023/05/05 10:32:42;;;;;;;6.63;3.05;;;;;;;;;;5090009;28;20229;-61
2023/05/05 10:35:07;;;;;;;5.93;2.20;;;;;;;;;;5089886;28;20228;-61
2023/05/05 10:37:33;;;;;;;6.68;2.28;;;;;;;;;;5091341;28;20217;-61
2023/05/05 10:39:58;;;;;;;5.88;2.65;;;;;;;;;;5089724;28;20206;-61
2023/05/05 10:42:23;;;;;;;5.97;2.63;;;;;;;;;;5088495;28;20205;-61
2023/05/05 10:44:49;;;;;;;4.32;1.98;;;;;;;;;;5090762;28;20292;-61
2023/05/05 10:47:15;;;;;;;4.55;2.03;;;;;;;;;;5090531;28;20213;-60
2023/05/05 10:49:43;;;;;;;4.85;2.28;;;;;;;;;;5089991;28;20620;-61
2023/05/05 10:52:15;;;;;;;6.43;3.15;;;;;;;;;;5089043;28;20209;-61
2023/05/05 10:55:00;;;;;;;5.55;2.60;;;;;;;;;;5090783;28;20233;-61
2023/05/05 10:57:26;;;;;;;4.65;2.30;;;;;;;;;;5083814;28;20214;-60
2023/05/05 10:59:51;;;;;;;7.43;2.30;;;;;;;;;;5070043;28;20215;-61
2023/05/05 11:02:16;;;;;;;5.80;2.42;;;;;;;;;;5069208;28;20210;-61
2023/05/05 11:04:41;;;;;;;5.90;2.30;;;;;;;;;;5069668;28;20217;-61
2023/05/05 11:07:07;;;;;;;6.72;2.55;;;;;;;;;;5069973;28;20331;-61
2023/05/05 11:09:35;;;;;;;4.60;2.35;;;;;;;;;;5075939;28;20205;-61
2023/05/05 11:12:01;;;;;;;7.20;2.83;;;;;;;;;;5089912;28;20638;-61
2023/05/05 11:14:27;;;;;;;5.82;2.80;;;;;;;;;;5090084;28;20219;-61
2023/05/05 11:16:53;;;;;;;6.10;3.20;;;;;;;;;;5078348;28;20215;-61
2023/05/05 11:19:40;;;;;;;7.40;3.28;;;;;;;;;;5069629;28;20297;-61
2023/05/05 11:22:05;;;;;;;8.00;3.30;;;;;;;;;;5069526;28;20222;-61
2023/05/05 11:24:30;;;;;;;7.68;3.72;;;;;;;;;;5069484;28;20293;-61
2023/05/05 11:26:56;;;;;;;7.55;4.35;;;;;;;;;;5068628;28;20232;-61
2023/05/05 11:29:21;;;;;;;5.20;3.15;;;;;;;;;;5069281;28;20270;-61
2023/05/05 11:32:06;;;;;;;6.85;3.90;;;;;;;;;;5077435;28;20206;-61
2023/05/05 11:34:31;;;;;;;8.48;3.65;;;;;;;;;;5077837;28;20313;-61
2023/05/05 11:36:59;;;;;;;6.57;3.38;;;;;;;;;;5071827;28;20312;-61
2023/05/05 11:39:34;;;;;;;4.97;3.22;;;;;;;;;;5071758;28;20698;-61
2023/05/05 11:42:15;;;;;;;6.38;3.25;;;;;;;;;;5085357;28;20274;-61
2023/05/05 11:44:40;;;;;;;8.27;3.50;;;;;;;;;;5069551;28;20225;-61
2023/05/05 11:47:05;;;;;;;9.45;3.58;;;;;;;;;;5067223;28;20895;-61
2023/05/05 11:49:32;;;;;;;6.78;3.92;;;;;;;;;;5069921;28;20713;-61
2023/05/05 11:51:59;;;;;;;7.38;3.70;;;;;;;;;;5067057;28;20732;-61
2023/05/05 11:54:25;;;;;;;6.97;3.50;;;;;;;;;;5067943;28;20229;-61
2023/05/05 11:56:50;;;;;;;6.35;2.80;;;;;;;;;;5070783;28;20596;-61
2023/05/05 11:59:16;;;;;;;3.03;1.10;;;;;;;;;;5072098;28;20230;-61
2023/05/05 12:01:41;;;;;;;4.63;1.10;;;;;;;;;;5068212;28;20237;-61
2023/05/05 12:04:07;;;;;;;5.25;1.10;;;;;;;;;;5069188;28;20222;-61
2023/05/05 12:06:33;;;;;;;5.20;1.08;;;;;;;;;;5066588;28;20260;-61
2023/05/05 12:09:00;;;;;;;5.80;0.95;;;;;;;;;;5068145;28;20238;-61
2023/05/05 12:11:25;;;;;;;3.17;0.70;;;;;;;;;;5066716;28;20222;-61
2023/05/05 12:14:05;;;;;;;4.15;0.90;;;;;;;;;;5068556;28;20705;-61
2023/05/05 12:16:32;;;;;;;3.60;0.85;;;;;;;;;;5071880;28;20214;-61
2023/05/05 12:19:04;;;;;;;3.78;0.82;;;;;;;;;;5072392;28;20220;-61
2023/05/05 12:21:30;;;;;;;1.73;0.70;;;;;;;;;;5063438;28;20244;-61
2023/05/05 12:23:55;;;;;;;2.38;0.60;;;;;;;;;;5072265;28;20286;-61
2023/05/05 12:26:26;;;;;;;1.42;0.55;;;;;;;;;;5071899;28;20221;-60
2023/05/05 12:28:52;;;;;;;3.63;0.60;;;;;;;;;;5069968;28;20691;-61
2023/05/05 12:31:18;;;;;;;1.13;0.43;;;;;;;;;;5069958;28;20210;-61
2023/05/05 12:33:43;;;;;;;3.40;0.77;;;;;;;;;;5072208;28;20260;-61
2023/05/05 12:36:08;;;;;;;2.58;0.60;;;;;;;;;;5069282;28;20219;-61
2023/05/05 12:38:34;;;;;;;3.08;0.70;;;;;;;;;;5071840;28;20627;-61
2023/05/05 12:40:59;;;;;;;3.00;0.80;;;;;;;;;;5070057;28;20206;-61
2023/05/05 12:43:27;;;;;;;3.25;0.70;;;;;;;;;;5070920;28;20543;-61
2023/05/05 12:45:58;;;;;;;2.92;0.60;;;;;;;;;;5071989;28;20218;-60
2023/05/05 12:48:23;;;;;;;2.90;0.90;;;;;;;;;;5070426;28;20214;-61
2023/05/05 12:50:49;;;;;;;3.50;0.90;;;;;;;;;;5071674;28;20583;-61
2023/05/05 12:53:21;;;;;;;3.17;0.95;;;;;;;;;;5071099;28;20256;-61
2023/05/05 12:55:46;;;;;;;5.57;1.33;;;;;;;;;;5070943;28;20241;-61
2023/05/05 12:58:11;;;;;;;2.97;0.80;;;;;;;;;;5070666;28;20194;-61
2023/05/05 13:00:37;;;;;;;4.80;1.08;;;;;;;;;;5071193;28;20237;-61
2023/05/05 13:03:03;;;;;;;6.15;1.17;;;;;;;;;;5070027;28;20214;-62
2023/05/05 13:05:31;;;;;;;5.32;1.15;;;;;;;;;;5071538;28;20591;-61
2023/05/05 13:07:56;;;;;;;1.80;0.80;;;;;;;;;;5071170;28;20210;-61
2023/05/05 13:10:23;;;;;;;5.78;0.90;;;;;;;;;;5070054;28;20671;-60
2023/05/05 13:12:49;;;;;;;2.88;0.80;;;;;;;;;;5067927;28;20599;-61
2023/05/05 13:15:14;;;;;;;1.75;0.80;;;;;;;;;;5073372;28;20217;-60
2023/05/05 13:17:41;;;;;;;2.25;0.70;;;;;;;;;;5079367;28;20294;-61
2023/05/05 13:20:08;;;;;;;2.05;0.52;;;;;;;;;;5066492;28;20275;-61
2023/05/05 13:22:34;;;;;;;2.55;0.93;;;;;;;;;;5077680;28;20220;-61
2023/05/05 13:24:59;;;;;;;2.70;0.90;;;;;;;;;;5077594;28;20214;-61
2023/05/05 13:27:25;;;;;;;2.17;0.93;;;;;;;;;;5075771;28;20213;-61
2023/05/05 13:29:50;;;;;;;2.85;0.80;;;;;;;;;;5065095;28;20579;-60
2023/05/05 13:32:15;;;;;;;1.83;1.10;;;;;;;;;;5064396;28;20218;-61
2023/05/05 13:34:42;;;;;;;2.08;1.00;;;;;;;;;;5065228;28;20222;-61
2023/05/05 13:37:07;;;;;;;2.33;1.23;;;;;;;;;;5071229;28;20222;-61
2023/05/05 13:39:33;;;;;;;2.45;0.82;;;;;;;;;;5084619;28;20213;-60
2023/05/05 13:41:58;;;;;;;2.85;0.93;;;;;;;;;;5080160;28;20209;-61
2023/05/05 13:44:23;;;;;;;3.47;1.50;;;;;;;;;;5077608;28;20410;-61
2023/05/05 13:46:48;;;;;;;1.60;0.93;;;;;;;;;;5079365;28;20205;-61
2023/05/05 13:49:14;;;;;;;3.60;1.33;;;;;;;;;;5083136;28;20213;-61
2023/05/05 13:51:39;;;;;;;3.13;1.00;;;;;;;;;;5084478;28;20222;-61
2023/05/05 13:54:05;;;;;;;3.25;1.40;;;;;;;;;;5067245;28;20222;-61
2023/05/05 13:56:30;;;;;;;3.65;1.20;;;;;;;;;;5066423;28;20246;-61
2023/05/05 13:58:56;;;;;;;4.38;1.60;;;;;;;;;;5065862;28;20210;-61
2023/05/05 14:01:21;;;;;;;3.30;1.40;;;;;;;;;;5065550;28;20206;-61
2023/05/05 14:03:46;;;;;;;2.88;1.40;;;;;;;;;;5062887;28;20279;-61
2023/05/05 14:06:12;;;;;;;3.75;1.50;;;;;;;;;;5057419;28;20578;-61
2023/05/05 14:08:37;;;;;;;4.35;1.60;;;;;;;;;;5078097;28;20202;-61
2023/05/05 14:11:02;;;;;;;3.60;1.48;;;;;;;;;;5062210;28;20242;-61
2023/05/05 14:13:28;;;;;;;5.38;1.50;;;;;;;;;;5065150;28;20214;-61
2023/05/05 14:15:53;;;;;;;2.72;1.60;;;;;;;;;;5066159;28;20226;-61
2023/05/05 14:18:18;;;;;;;3.42;1.42;;;;;;;;;;5063692;28;20206;-61
2023/05/05 14:20:43;;;;;;;3.55;1.20;;;;;;;;;;5064965;28;20665;-61
2023/05/05 14:23:09;;;;;;;3.13;1.23;;;;;;;;;;5065328;28;20214;-62
2023/05/05 14:25:34;;;;;;;3.50;1.30;;;;;;;;;;5065064;28;20210;-61
2023/05/05 14:27:59;;;;;;;1.30;1.10;;;;;;;;;;5071886;28;20210;-62
2023/05/05 14:30:24;;;;;;;5.60;1.25;;;;;;;;;;5076812;28;20251;-61